Time;durP1;ratioP1;P1;durP2;ratioP2;P2;SDS_P1;SDS_P2;PMS_P1;PMS_P2;Temp;Humidity;BMP_temperature;BMP_pressure;BME280_temperature;BME280_humidity;BME280_pressure;Samples;Min_cycle;Max_cycle;Signal;HPM_P1;HPM_P2
2022/06/29 00:00:52;;;;;;;4.15;1.35;;;;;;;20.92;47.31;99635.03;12207203;19;20121;-83
2022/06/29 00:04:53;;;;;;;3.33;1.33;;;;;;;20.94;47.49;99630.75;12190458;19;20024;-81
2022/06/29 00:08:55;;;;;;;3.53;1.42;;;;;;;20.93;47.16;99625.47;12216491;19;20003;-82
2022/06/29 00:12:57;;;;;;;3.00;1.45;;;;;;;20.97;46.87;99620.03;12205169;19;20003;-83
2022/06/29 00:16:58;;;;;;;4.50;1.65;;;;;;;20.92;46.47;99621.84;12184462;19;20026;-80
2022/06/29 00:21:00;;;;;;;6.43;1.35;;;;;;;20.94;46.39;99608.34;12207294;19;20036;-82
2022/06/29 00:25:02;;;;;;;2.08;1.50;;;;;;;20.95;46.81;99611.97;12209744;19;20464;-82
2022/06/29 00:29:04;;;;;;;2.65;1.15;;;;;;;20.93;46.79;99608.66;12170673;19;20015;-81
2022/06/29 00:33:06;;;;;;;3.63;1.23;;;;;;;20.86;46.59;99600.72;12203373;19;20033;-82
2022/06/29 00:37:08;;;;;;;5.18;1.33;;;;;;;20.82;46.61;99602.53;12209201;19;20046;-81
2022/06/29 00:41:10;;;;;;;2.47;1.35;;;;;;;20.83;46.90;99604.16;12178383;19;20021;-81
2022/06/29 00:45:11;;;;;;;2.28;1.30;;;;;;;20.82;46.61;99608.13;12199501;19;20523;-80
2022/06/29 00:49:18;;;;;;;3.70;1.55;;;;;;;20.83;46.78;99592.97;12209049;19;20011;-81
2022/06/29 00:53:21;;;;;;;3.28;1.45;;;;;;;20.84;46.53;99599.41;12170914;19;20391;-80
2022/06/29 00:57:24;;;;;;;2.20;1.30;;;;;;;20.85;47.02;99587.88;12207908;19;20011;-81
2022/06/29 01:01:26;;;;;;;2.03;1.30;;;;;;;20.81;47.24;99592.47;12201236;19;20013;-81
2022/06/29 01:05:29;;;;;;;3.00;1.48;;;;;;;20.82;47.02;99602.53;12169721;19;20025;-80
2022/06/29 01:09:31;;;;;;;4.75;1.45;;;;;;;20.84;47.57;99591.00;12194612;19;20058;-81
2022/06/29 01:13:33;;;;;;;2.55;1.63;;;;;;;20.84;47.73;99591.81;12210426;19;20011;-82
2022/06/29 01:17:34;;;;;;;2.42;1.48;;;;;;;20.83;47.95;99590.16;12181514;19;20006;-82
2022/06/29 01:21:39;;;;;;;3.95;1.85;;;;;;;20.89;47.50;99599.25;12184995;19;20028;-81
2022/06/29 01:25:41;;;;;;;2.78;1.40;;;;;;;20.92;47.43;99584.59;12188940;19;20007;-80
2022/06/29 01:29:43;;;;;;;3.67;1.45;;;;;;;20.89;47.80;99583.28;12192477;19;20014;-81
2022/06/29 01:33:46;;;;;;;2.63;1.67;;;;;;;20.99;47.74;99581.31;12197876;19;20011;-81
2022/06/29 01:37:49;;;;;;;3.08;1.55;;;;;;;21.04;47.35;99578.38;12189330;19;20078;-80
2022/06/29 01:41:50;;;;;;;3.55;1.52;;;;;;;21.07;47.51;99574.94;12197977;19;20011;-80
2022/06/29 01:45:52;;;;;;;4.10;1.33;;;;;;;21.08;47.51;99568.16;12194528;19;20086;-80
2022/06/29 01:49:54;;;;;;;1.80;1.30;;;;;;;21.10;47.52;99561.09;12174142;19;20102;-81
2022/06/29 01:53:55;;;;;;;2.63;1.70;;;;;;;21.12;47.77;99552.38;12191251;19;20007;-82
2022/06/29 01:57:57;;;;;;;2.00;1.40;;;;;;;21.16;47.67;99559.78;12220568;19;20024;-79
2022/06/29 02:01:59;;;;;;;4.43;1.85;;;;;;;21.16;47.93;99540.16;12227992;19;20010;-83
2022/06/29 02:06:02;;;;;;;2.47;1.38;;;;;;;21.17;47.90;99549.38;12217217;19;20032;-82
2022/06/29 02:10:04;;;;;;;10.32;1.50;;;;;;;21.20;47.88;99547.91;12208029;19;20027;-82
2022/06/29 02:14:06;;;;;;;3.97;1.80;;;;;;;21.20;47.50;99540.34;12193216;19;20094;-81
2022/06/29 02:18:07;;;;;;;2.25;1.42;;;;;;;21.19;47.53;99537.88;12208919;19;20260;-79
2022/06/29 02:22:09;;;;;;;3.78;1.65;;;;;;;21.18;47.70;99539.84;12198372;19;20011;-82
2022/06/29 02:26:11;;;;;;;2.28;1.40;;;;;;;21.18;47.68;99542.66;12189898;19;20015;-83
2022/06/29 02:30:14;;;;;;;2.75;1.40;;;;;;;21.19;47.54;99535.88;12203136;19;20445;-81
2022/06/29 02:38:36;;;;;;;3.33;1.67;;;;;;;21.18;48.04;99542.66;12190766;19;20074;-83
2022/06/29 02:42:38;;;;;;;5.50;1.60;;;;;;;21.16;47.67;99542.16;12202867;19;20113;-83
2022/06/29 02:46:59;;;;;;;4.72;1.70;;;;;;;21.17;47.69;99538.19;12174451;19;20015;-82
2022/06/29 02:51:01;;;;;;;2.90;1.65;;;;;;;21.16;47.96;99526.16;12197782;19;20097;-82
2022/06/29 02:55:03;;;;;;;3.72;1.48;;;;;;;21.16;48.02;99531.75;12205835;19;20010;-82
2022/06/29 02:59:05;;;;;;;2.30;1.48;;;;;;;21.07;48.28;99530.94;12179380;19;20070;-84
2022/06/29 03:03:06;;;;;;;2.38;1.60;;;;;;;21.10;48.26;99535.06;12186419;19;20066;-83
2022/06/29 03:07:08;;;;;;;5.78;1.55;;;;;;;;;;12200781;19;20006;-83
2022/06/29 03:11:11;;;;;;;2.60;1.50;;;;;;;21.11;48.60;99531.09;12179919;19;20086;-83
2022/06/29 03:15:12;;;;;;;2.90;1.60;;;;;;;21.05;49.03;99526.78;12199622;19;20525;-82
2022/06/29 03:19:14;;;;;;;2.45;1.67;;;;;;;21.05;48.81;99530.41;12197917;19;20006;-82
2022/06/29 03:23:16;;;;;;;2.65;1.90;;;;;;;21.05;48.98;99524.81;12181084;19;20011;-81
2022/06/29 03:27:17;;;;;;;4.43;1.70;;;;;;;21.04;48.84;99527.97;12199296;19;20007;-81
2022/06/29 03:31:20;;;;;;;3.58;1.73;;;;;;;21.04;49.30;99533.56;12206697;19;20103;-82
2022/06/29 03:35:21;;;;;;;2.42;1.67;;;;;;;21.06;49.28;99536.84;12184120;19;20050;-81
2022/06/29 03:39:23;;;;;;;3.00;1.60;;;;;;;21.07;49.15;99536.53;12201032;19;20074;-82
2022/06/29 03:43:24;;;;;;;2.72;1.83;;;;;;;21.07;49.60;99533.72;12217325;19;20062;-81
2022/06/29 03:47:26;;;;;;;4.88;2.22;;;;;;;21.11;49.40;99540.31;12181894;19;20019;-79
2022/06/29 03:51:28;;;;;;;6.55;2.53;;;;;;;21.13;50.20;99534.41;12204869;19;20098;-81
2022/06/29 03:55:30;;;;;;;2.27;1.67;;;;;;;21.07;50.64;99539.31;12201134;19;20030;-83
2022/06/29 03:59:31;;;;;;;5.75;1.95;;;;;;;21.02;50.66;99545.06;12183577;19;20018;-81
2022/06/29 04:03:33;;;;;;;3.35;1.92;;;;;;;21.01;50.51;99535.03;12215937;19;20006;-81
2022/06/29 04:07:35;;;;;;;3.72;2.08;;;;;;;20.99;51.13;99539.31;12217335;19;20011;-82
2022/06/29 04:11:49;;;;;;;3.33;1.60;;;;;;;20.96;51.56;99545.56;12184272;19;20024;-83
2022/06/29 04:15:50;;;;;;;2.83;1.77;;;;;;;20.92;52.27;99540.59;12212302;19;21924;-82
2022/06/29 04:19:52;;;;;;;2.72;1.73;;;;;;;20.91;52.08;99524.97;12185776;19;20579;-82
2022/06/29 04:23:54;;;;;;;6.23;2.20;;;;;;;20.97;52.25;99524.78;12205791;19;20114;-81
2022/06/29 04:27:56;;;;;;;4.13;2.10;;;;;;;21.02;52.88;99527.44;12209387;19;20011;-81
2022/06/29 04:31:58;;;;;;;2.85;1.77;;;;;;;21.06;53.31;99522.84;12189538;19;20014;-81
2022/06/29 04:36:00;;;;;;;4.78;2.05;;;;;;;21.14;53.18;99522.84;12202252;19;20019;-80
2022/06/29 04:40:03;;;;;;;2.92;2.08;;;;;;;21.28;53.44;99519.09;12207056;19;20007;-83
2022/06/29 04:44:04;;;;;;;5.72;2.58;;;;;;;21.38;53.36;99519.59;12184856;19;20026;-81
2022/06/29 04:48:06;;;;;;;8.13;2.45;;;;;;;21.56;53.39;99516.81;12206982;19;20026;-81
2022/06/29 04:52:08;;;;;;;7.55;2.85;;;;;;;21.72;53.76;99517.16;12211397;19;20010;-81
2022/06/29 04:56:09;;;;;;;3.88;2.30;;;;;;;21.80;53.78;99525.56;12170594;19;20174;-79
2022/06/29 05:00:12;;;;;;;4.65;2.38;;;;;;;21.88;53.47;99512.66;12209018;19;20660;-80
2022/06/29 05:04:14;;;;;;;4.35;2.45;;;;;;;21.96;54.04;99516.63;12204602;19;20006;-79
2022/06/29 05:08:15;;;;;;;6.23;2.50;;;;;;;22.04;54.01;99521.34;12189613;19;20010;-80
2022/06/29 05:12:17;;;;;;;5.32;2.30;;;;;;;22.15;53.27;99521.84;12200056;19;20011;-82
2022/06/29 05:16:20;;;;;;;4.35;2.80;;;;;;;22.17;53.65;99525.19;12206118;19;20408;-82
2022/06/29 05:20:22;;;;;;;4.50;2.55;;;;;;;22.16;53.80;99524.34;12185420;19;20031;-81
2022/06/29 05:24:23;;;;;;;4.45;2.70;;;;;;;22.25;54.41;99529.94;12201808;19;20011;-82
2022/06/29 05:28:25;;;;;;;6.07;3.00;;;;;;;22.36;54.00;99527.59;12208449;19;20013;-81
2022/06/29 05:32:27;;;;;;;4.57;2.60;;;;;;;22.45;54.29;99531.19;12176672;19;20362;-81
2022/06/29 05:36:28;;;;;;;9.07;3.03;;;;;;;22.53;54.76;99525.53;12190511;19;20029;-81
2022/06/29 05:40:30;;;;;;;5.07;2.40;;;;;;;22.52;54.41;99531.50;12193949;19;20040;-82
2022/06/29 05:44:32;;;;;;;5.47;2.90;;;;;;;22.52;54.65;99537.94;12177819;19;20070;-82
2022/06/29 05:48:33;;;;;;;4.63;2.92;;;;;;;22.49;54.79;99535.81;12199657;19;20029;-81
2022/06/29 05:52:38;;;;;;;4.47;3.03;;;;;;;22.55;55.03;99536.44;12190966;19;20033;-82
2022/06/29 05:56:40;;;;;;;7.25;3.30;;;;;;;22.69;55.38;99522.97;12170513;19;20418;-78
2022/06/29 06:00:42;;;;;;;7.22;3.33;;;;;;;22.76;56.73;99525.28;12190218;19;20446;-82
2022/06/29 06:04:44;;;;;;;4.65;3.22;;;;;;;22.85;56.63;99528.06;12179115;19;20019;-82
2022/06/29 06:08:46;;;;;;;4.83;3.20;;;;;;;22.85;56.25;99523.25;12181059;19;20010;-82
2022/06/29 06:12:47;;;;;;;4.45;3.10;;;;;;;23.01;55.63;99525.50;12194119;19;20674;-82
2022/06/29 06:16:49;;;;;;;6.55;4.07;;;;;;;23.11;55.44;99523.13;12186019;19;20018;-82
2022/06/29 06:20:51;;;;;;;6.50;3.40;;;;;;;23.15;54.51;99526.06;12205702;19;20471;-81
2022/06/29 06:24:52;;;;;;;5.10;3.65;;;;;;;23.24;54.31;99529.66;12200175;19;20006;-82
2022/06/29 06:28:54;;;;;;;6.43;3.78;;;;;;;23.31;53.91;99527.09;12178933;19;20027;-82
2022/06/29 06:32:57;;;;;;;6.25;3.65;;;;;;;23.37;53.78;99530.53;12200887;19;20003;-82
2022/06/29 06:36:59;;;;;;;10.10;4.17;;;;;;;23.44;53.81;99530.84;12204482;19;20559;-82
2022/06/29 06:45:21;;;;;;;5.78;3.67;;;;;;;23.59;53.98;99541.47;12208376;19;20012;-83
2022/06/29 06:49:24;;;;;;;8.00;4.18;;;;;;;23.64;53.65;99543.22;12197862;19;20078;-82
2022/06/29 06:53:26;;;;;;;;;;;;;;;23.64;53.62;99552.47;12184638;19;20070;-82
2022/06/29 06:57:27;;;;;;;6.10;3.38;;;;;;;23.67;54.14;99551.78;12201681;19;19915;-82
2022/06/29 07:01:29;;;;;;;7.22;4.22;;;;;;;24.00;54.29;99550.22;12194781;19;20033;-82
2022/06/29 07:05:31;;;;;;;7.87;4.60;;;;;;;24.26;53.54;99541.50;12179814;19;20078;-82
2022/06/29 07:09:33;;;;;;;6.23;4.80;;;;;;;24.43;52.80;99546.16;12204777;19;20014;-83
2022/06/29 07:13:35;;;;;;;6.78;4.55;;;;;;;24.58;52.46;99547.47;12198793;19;20082;-83
2022/06/29 07:17:36;;;;;;;5.60;4.47;;;;;;;24.72;52.65;99540.31;12182104;19;20714;-83
2022/06/29 07:21:39;;;;;;;8.23;4.40;;;;;;;24.86;52.24;99534.31;12198671;19;20048;-83
2022/06/29 07:25:41;;;;;;;13.20;5.40;;;;;;;24.91;51.50;99539.72;12203423;19;20011;-82
2022/06/29 07:29:43;;;;;;;6.45;5.13;;;;;;;24.88;51.84;99537.63;12177036;19;20029;-83
2022/06/29 07:33:44;;;;;;;6.60;4.80;;;;;;;24.73;52.05;99532.69;12192145;19;20097;-82
2022/06/29 07:37:51;;;;;;;7.45;5.68;;;;;;;24.58;51.88;99542.66;12182628;19;20031;-82
2022/06/29 07:41:53;;;;;;;6.82;5.05;;;;;;;24.33;52.45;99539.78;12204132;19;20007;-80
2022/06/29 07:45:58;;;;;;;7.97;5.63;;;;;;;24.23;53.09;99542.19;12198164;19;20011;-81
2022/06/29 07:50:00;;;;;;;6.30;5.05;;;;;;;24.23;53.15;99547.81;12167169;19;20033;-82
2022/06/29 07:54:02;;;;;;;6.93;5.40;;;;;;;24.26;53.89;99538.69;12188856;19;20010;-82
2022/06/29 07:58:03;;;;;;;6.67;4.97;;;;;;;24.62;53.22;99537.13;12200578;19;20495;-83
2022/06/29 08:02:05;;;;;;;7.07;5.37;;;;;;;24.88;52.38;99528.34;12173258;19;20085;-82
2022/06/29 08:06:07;;;;;;;11.43;5.23;;;;;;;25.15;52.10;99530.47;12194876;19;20038;-81
2022/06/29 08:10:09;;;;;;;8.57;5.33;;;;;;;25.40;51.33;99527.59;12205347;19;20414;-81
2022/06/29 08:14:10;;;;;;;8.80;6.00;;;;;;;25.46;51.68;99524.19;12172827;19;20023;-82
2022/06/29 08:18:13;;;;;;;10.03;6.13;;;;;;;25.78;50.92;99527.13;12216765;19;20327;-81
2022/06/29 08:22:15;;;;;;;11.60;6.00;;;;;;;25.94;49.87;99524.41;12201006;19;20007;-80
2022/06/29 08:26:16;;;;;;;6.53;5.47;;;;;;;25.98;50.08;99518.84;12186362;19;20487;-80
2022/06/29 08:30:37;;;;;;;7.30;5.68;;;;;;;26.15;50.53;99518.53;12208620;19;20017;-81
2022/06/29 08:34:41;;;;;;;8.70;5.77;;;;;;;26.36;49.62;99527.56;12194374;19;20021;-82
2022/06/29 08:38:43;;;;;;;10.25;6.00;;;;;;;26.71;49.16;99520.38;12192166;19;20730;-80
2022/06/29 08:42:46;;;;;;;7.70;6.07;;;;;;;27.03;48.34;99509.88;12203306;19;20017;-83
2022/06/29 08:46:47;;;;;;;8.15;6.38;;;;;;;27.34;48.16;99505.38;12203038;19;20018;-81
2022/06/29 08:50:51;;;;;;;9.50;6.70;;;;;;;27.70;47.13;99504.13;12176329;19;20103;-83
2022/06/29 08:54:54;;;;;;;7.70;5.22;;;;;;;27.85;46.45;99514.56;12208120;19;20025;-83
2022/06/29 08:58:57;;;;;;;7.10;5.85;;;;;;;27.67;46.96;99510.53;12175705;19;20056;-82
2022/06/29 09:02:59;;;;;;;7.90;6.25;;;;;;;27.62;47.46;99520.13;12204367;19;20417;-82
2022/06/29 09:07:00;;;;;;;8.52;6.18;;;;;;;27.80;46.54;99511.22;12205931;19;20045;-82
2022/06/29 09:11:25;;;;;;;9.57;6.10;;;;;;;27.92;46.25;99517.53;12179284;19;20093;-80
2022/06/29 09:15:33;;;;;;;7.53;5.85;;;;;;;27.98;45.87;99506.72;12196145;19;20086;-82
2022/06/29 09:19:35;;;;;;;7.93;6.70;;;;;;;28.11;45.29;99515.88;12213252;19;20365;-82
2022/06/29 09:23:37;;;;;;;12.75;7.10;;;;;;;28.11;45.67;99518.69;12183937;19;20018;-81
2022/06/29 09:27:43;;;;;;;7.50;6.32;;;;;;;28.20;44.89;99510.81;12202641;19;20015;-82
2022/06/29 09:32:01;;;;;;;7.60;6.68;;;;;;;28.43;44.36;99516.50;12203919;19;20370;-81
2022/06/29 09:36:08;;;;;;;10.45;6.30;;;;;;;28.74;44.77;99518.28;12177993;19;20684;-82
2022/06/29 09:40:10;;;;;;;7.18;5.90;;;;;;;28.82;44.25;99519.19;12207418;19;20094;-83
2022/06/29 09:44:12;;;;;;;8.80;6.47;;;;;;;29.26;43.44;99513.81;12176452;19;20404;-83
2022/06/29 09:48:14;;;;;;;8.55;6.53;;;;;;;29.60;42.92;99510.22;12203733;19;20074;-82
2022/06/29 09:52:17;;;;;;;9.60;6.20;;;;;;;29.60;42.91;99502.56;12197583;19;20044;-82
2022/06/29 09:56:21;;;;;;;7.50;6.40;;;;;;;29.72;42.92;99512.88;12163708;19;20467;-83
2022/06/29 10:04:44;;;;;;;10.05;7.20;;;;;;;29.35;43.57;99499.34;12195863;19;20014;-80
2022/06/29 10:08:46;;;;;;;10.23;7.03;;;;;;;29.34;43.36;99492.06;12175871;19;20017;-82
2022/06/29 10:13:39;;;;;;;7.15;6.40;;;;;;;30.01;42.03;99490.47;12201442;19;20010;-82
2022/06/29 10:17:55;;;;;;;7.00;6.18;;;;;;;30.58;41.07;99485.38;12174819;19;20007;-82
2022/06/29 10:21:57;;;;;;;7.32;6.55;;;;;;;30.93;40.90;99472.69;12200021;19;20829;-82
2022/06/29 10:26:00;;;;;;;;;;;;;;;30.70;40.57;99475.72;12174316;19;20017;-82
2022/06/29 10:30:19;;;;;;;7.82;6.55;;;;;;;30.38;41.12;99477.09;12204072;19;19915;-81
2022/06/29 10:34:31;;;;;;;8.35;6.32;;;;;;;29.63;41.96;99476.25;12205049;19;20013;-82
2022/06/29 10:38:53;;;;;;;8.73;7.27;;;;;;;29.48;42.19;99475.22;12183536;19;20007;-83
2022/06/29 10:43:10;;;;;;;7.60;6.80;;;;;;;29.98;41.74;99469.34;12205128;19;20003;-83
2022/06/29 10:47:22;;;;;;;7.90;6.30;;;;;;;30.43;42.11;99465.38;12186058;19;20021;-84
2022/06/29 10:51:28;;;;;;;7.60;6.45;;;;;;;30.52;41.10;99458.50;12204527;19;20014;-82
2022/06/29 10:55:31;;;;;;;8.05;6.68;;;;;;;30.98;40.74;99444.69;12200995;19;20006;-81
2022/06/29 10:59:33;;;;;;;11.45;6.72;;;;;;;31.87;38.84;99450.00;12183719;19;20018;-83
2022/06/29 11:03:54;;;;;;;8.55;7.38;;;;;;;31.32;38.65;99442.44;12210866;19;20649;-82
2022/06/29 11:12:26;;;;;;;7.35;6.55;;;;;;;30.45;40.57;99444.25;12214959;19;20064;-82
2022/06/29 11:16:34;;;;;;;8.40;7.10;;;;;;;30.47;40.68;99447.53;12207377;19;20007;-83
2022/06/29 11:20:41;;;;;;;8.30;6.95;;;;;;;30.20;40.73;99445.66;12184890;19;20066;-83
2022/06/29 11:25:01;;;;;;;9.38;6.82;;;;;;;30.35;40.14;99446.59;12203723;19;20014;-83
2022/06/29 11:29:10;;;;;;;8.20;6.63;;;;;;;30.49;40.18;99442.25;12179136;19;20018;-81
2022/06/29 11:33:12;;;;;;;7.38;5.75;;;;;;;30.49;40.14;99442.25;12204468;19;20014;-82
2022/06/29 11:37:14;;;;;;;;;;;;;;;30.31;40.54;99442.94;12198269;19;20074;-83
2022/06/29 11:43:03;;;;;;;7.38;6.15;;;;;;;30.23;41.13;99441.22;12181387;19;19919;-82
2022/06/29 11:45:53;;;;;;;7.22;6.20;;;;;;;30.35;40.68;99432.41;12200260;19;20011;-81
2022/06/29 11:49:55;;;;;;;8.52;6.63;;;;;;;31.53;38.92;99423.81;12188018;19;20092;-82
2022/06/29 11:54:01;;;;;;;6.90;5.68;;;;;;;32.16;37.15;99430.94;12210016;19;20011;-82
2022/06/29 11:58:04;;;;;;;8.23;5.88;;;;;;;31.65;37.83;99429.19;12214826;19;20006;-83
2022/06/29 12:02:07;;;;;;;10.10;6.53;;;;;;;31.91;37.63;99428.03;12200070;19;20600;-83
2022/06/29 12:06:11;;;;;;;9.02;5.93;;;;;;;31.74;37.97;99421.06;12216361;19;20372;-83
2022/06/29 12:10:13;;;;;;;7.97;7.20;;;;;;;31.77;37.38;99408.88;12221825;19;20024;-83
2022/06/29 12:14:15;;;;;;;7.10;6.10;;;;;;;32.24;37.33;99411.81;12194907;19;20017;-82
2022/06/29 12:18:18;;;;;;;7.38;6.38;;;;;;;33.04;36.25;99408.50;12217904;19;20029;-82
2022/06/29 12:22:20;;;;;;;8.02;6.90;;;;;;;33.87;34.75;99394.69;12214186;19;20014;-82
2022/06/29 12:26:25;;;;;;;7.43;6.65;;;;;;;34.90;33.29;99393.06;12200757;19;20029;-82
2022/06/29 12:30:27;;;;;;;7.97;6.60;;;;;;;35.72;31.96;99401.94;12214962;19;20018;-83
2022/06/29 12:34:29;;;;;;;9.80;7.22;;;;;;;36.48;31.07;99393.81;12211080;19;20011;-82
2022/06/29 12:38:33;;;;;;;7.45;6.47;;;;;;;37.02;29.26;99387.94;12189324;19;20007;-83
2022/06/29 12:42:34;;;;;;;7.78;7.00;;;;;;;35.84;31.00;99384.13;12255141;19;20003;-83
2022/06/29 12:46:39;;;;;;;8.07;6.80;;;;;;;34.86;32.24;99392.31;12241932;19;20102;-84
2022/06/29 12:50:49;;;;;;;8.30;6.43;;;;;;;34.15;33.02;99390.88;12187244;19;20024;-83
2022/06/29 12:55:46;;;;;;;8.77;7.00;;;;;;;35.29;32.11;99388.16;12245230;19;20010;-84
2022/06/29 12:59:48;;;;;;;9.70;6.63;;;;;;;35.26;32.00;99391.88;12200958;19;20384;-83
2022/06/29 13:03:50;;;;;;;9.30;6.80;;;;;;;34.85;32.35;99373.47;12224650;19;20011;-84
2022/06/29 13:07:55;;;;;;;8.88;6.63;;;;;;;35.48;31.46;99376.00;12200791;19;20018;-82
2022/06/29 13:11:59;;;;;;;6.78;6.15;;;;;;;36.60;30.36;99375.19;12226006;19;20010;-84
2022/06/29 13:16:01;;;;;;;7.22;6.53;;;;;;;37.74;28.82;99366.31;12215493;19;20017;-84
2022/06/29 13:20:08;;;;;;;10.10;6.90;;;;;;;38.20;27.90;99364.44;12191169;19;20118;-84
2022/06/29 13:24:10;;;;;;;9.18;6.18;;;;;;;37.56;28.23;99367.53;12219751;19;20475;-83
2022/06/29 13:28:32;;;;;;;8.75;6.70;;;;;;;38.40;26.45;99356.50;12219113;19;20021;-83
2022/06/29 13:33:11;;;;;;;6.35;5.78;;;;;;;39.64;25.53;99350.56;12209062;19;20030;-85
2022/06/29 13:42:27;;;;;;;9.65;5.70;;;;;;;40.96;24.14;99354.81;12212976;19;20013;-85
2022/06/29 13:46:55;;;;;;;6.22;5.63;;;;;;;41.68;23.02;99343.44;12219903;19;20007;-84
2022/06/29 13:51:10;;;;;;;6.20;5.60;;;;;;;42.26;22.82;99351.38;12195020;19;20002;-83
2022/06/29 13:55:46;;;;;;;7.95;5.95;;;;;;;43.05;21.79;99332.66;12208070;19;20684;-83
2022/06/29 13:59:52;;;;;;;8.30;6.00;;;;;;;42.88;21.20;99335.88;12182843;19;20078;-83
2022/06/29 14:03:55;;;;;;;6.10;5.53;;;;;;;42.01;21.37;99343.75;12208227;19;20010;-82
2022/06/29 14:07:57;;;;;;;7.15;5.38;;;;;;;42.74;21.34;99342.31;12187601;19;20017;-84
2022/06/29 14:12:19;;;;;;;8.75;5.43;;;;;;;43.54;20.50;99343.25;12210333;19;20767;-82
2022/06/29 14:16:23;;;;;;;20.15;5.93;;;;;;;43.53;20.50;99336.63;12199501;19;20010;-83
2022/06/29 14:20:25;;;;;;;6.50;5.90;;;;;;;43.08;20.62;99338.28;12178435;19;20007;-83
2022/06/29 14:24:52;;;;;;;7.47;5.78;;;;;;;42.38;21.16;99325.69;12201136;19;20360;-84
2022/06/29 14:28:57;;;;;;;;;;;;;;;41.16;22.30;99331.34;12183844;19;20472;-84
2022/06/29 14:42:44;;;;;;;8.18;5.55;;;;;;;39.69;23.43;99318.28;12212019;19;20042;-83
2022/06/29 14:46:47;;;;;;;8.63;4.63;;;;;;;38.51;24.19;99322.50;12211973;19;20019;-83
2022/06/29 14:50:48;;;;;;;9.10;5.35;;;;;;;37.29;26.17;99321.72;12185831;19;20034;-83
2022/06/29 14:54:51;;;;;;;9.02;5.57;;;;;;;37.02;26.73;99318.19;12212637;19;20012;-83
2022/06/29 14:59:08;;;;;;;5.43;4.82;;;;;;;37.62;26.03;99308.25;12193249;19;20022;-83
2022/06/29 15:03:10;;;;;;;7.20;5.22;;;;;;;36.56;27.09;99319.88;12201029;19;19999;-82
2022/06/29 15:07:13;;;;;;;7.68;5.40;;;;;;;35.93;27.55;99314.78;12202926;19;20078;-83
2022/06/29 15:11:15;;;;;;;7.68;5.25;;;;;;;35.32;28.02;99315.69;12191591;19;20038;-83
2022/06/29 15:15:17;;;;;;;6.93;5.45;;;;;;;34.73;28.67;99308.22;12210266;19;20022;-82
2022/06/29 15:19:18;;;;;;;7.03;4.82;;;;;;;34.24;29.62;99308.28;12204857;19;20011;-83
2022/06/29 15:23:21;;;;;;;6.70;4.40;;;;;;;34.32;29.25;99311.06;12185949;19;20006;-82
2022/06/29 15:27:23;;;;;;;6.47;4.72;;;;;;;33.96;29.75;99309.28;12208001;19;20006;-82
2022/06/29 15:31:25;;;;;;;;;;;;;;;33.42;30.77;99305.97;12221773;19;20003;-82
2022/06/29 15:39:47;;;;;;;6.30;3.95;;;;;;;33.67;30.72;99290.75;12220356;19;20007;-82
2022/06/29 15:43:50;;;;;;;;;;;;;;;33.59;31.10;99290.00;12225115;19;20354;-82
2022/06/29 15:47:52;;;;;;;5.15;4.15;;;;;;;33.74;30.78;99282.94;12187375;19;19963;-83
2022/06/29 15:51:54;;;;;;;6.97;4.25;;;;;;;33.84;30.49;99280.41;12217121;19;20014;-82
2022/06/29 15:55:56;;;;;;;7.72;5.00;;;;;;;33.40;30.55;99271.31;12192923;19;20010;-82
2022/06/29 15:59:58;;;;;;;9.77;4.30;;;;;;;33.08;31.21;99263.75;12218557;19;20013;-82
2022/06/29 16:04:00;;;;;;;5.47;3.83;;;;;;;32.80;31.49;99263.84;12222108;19;20471;-82
2022/06/29 16:08:02;;;;;;;;;;;;;;;32.44;31.67;99258.25;12202069;19;20010;-82
2022/06/29 16:12:07;;;;;;;5.30;3.80;;;;;;;32.54;31.56;99251.72;12218114;19;19915;-82
2022/06/29 16:16:09;;;;;;;5.97;3.85;;;;;;;32.60;31.34;99241.53;12259350;19;20006;-84
2022/06/29 16:20:11;;;;;;;7.50;3.65;;;;;;;32.63;31.67;99239.88;12199883;19;20011;-83
2022/06/29 16:24:13;;;;;;;5.13;3.55;;;;;;;32.49;32.04;99242.78;12218696;19;20020;-83
2022/06/29 16:28:15;;;;;;;5.30;3.50;;;;;;;32.09;32.49;99236.31;12223245;19;20025;-83
2022/06/29 16:32:17;;;;;;;7.70;3.85;;;;;;;31.73;32.63;99231.44;12196980;19;20130;-82
2022/06/29 16:36:18;;;;;;;5.18;3.40;;;;;;;31.47;33.27;99240.38;12203155;19;20022;-82
2022/06/29 16:40:20;;;;;;;4.68;3.92;;;;;;;31.14;33.73;99244.34;12218465;19;20006;-83
2022/06/29 16:44:29;;;;;;;11.35;3.83;;;;;;;30.95;33.77;99232.09;12202024;19;20052;-82
2022/06/29 16:48:31;;;;;;;7.90;4.00;;;;;;;30.84;34.13;99237.75;12213431;19;20006;-82
2022/06/29 16:52:33;;;;;;;6.85;3.92;;;;;;;30.62;34.38;99227.47;12208419;19;20444;-83
2022/06/29 16:56:35;;;;;;;5.35;4.13;;;;;;;30.52;34.96;99234.75;12188304;19;20479;-82
2022/06/29 17:00:37;;;;;;;5.25;3.92;;;;;;;30.42;35.57;99233.47;12214144;19;20007;-82
2022/06/29 17:04:39;;;;;;;3.90;3.33;;;;;;;30.47;35.34;99234.31;12217811;19;20032;-83
2022/06/29 17:08:40;;;;;;;4.95;3.72;;;;;;;30.56;35.66;99231.94;12193537;19;20018;-82
2022/06/29 17:12:44;;;;;;;9.40;5.05;;;;;;;30.42;36.01;99236.31;12221106;19;20018;-82
2022/06/29 17:16:46;;;;;;;5.88;4.15;;;;;;;30.24;36.66;99234.59;12222272;19;20049;-82
2022/06/29 17:20:48;;;;;;;;;;;;;;;30.38;36.43;99240.34;12192611;19;20015;-82
2022/06/29 17:24:50;;;;;;;5.77;4.43;;;;;;;30.50;35.89;99237.16;12213479;19;19918;-83
2022/06/29 17:28:52;;;;;;;8.20;4.40;;;;;;;30.55;35.82;99235.97;12212717;19;20018;-82
2022/06/29 17:32:53;;;;;;;;;;;;;;;30.58;35.87;99235.16;12201068;19;20007;-82
2022/06/29 17:37:42;;;;;;;5.13;3.80;;;;;;;30.52;36.35;99231.91;12221644;19;19926;-83
2022/06/29 17:41:49;;;;;;;7.13;4.25;;;;;;;30.35;35.86;99232.63;12191298;19;20010;-82
2022/06/29 17:45:50;;;;;;;8.85;5.18;;;;;;;30.20;36.40;99232.53;12212411;19;20011;-82
2022/06/29 17:49:52;;;;;;;4.93;4.00;;;;;;;30.11;36.72;99234.88;12202985;19;20006;-84
2022/06/29 17:53:54;;;;;;;6.72;4.03;;;;;;;30.03;37.17;99223.88;12190227;19;20006;-82
2022/06/29 17:57:56;;;;;;;7.40;4.70;;;;;;;29.93;36.81;99226.25;12200182;19;20024;-82
2022/06/29 18:01:57;;;;;;;9.07;4.78;;;;;;;29.88;37.02;99226.59;12191376;19;20074;-84
2022/06/29 18:05:59;;;;;;;6.30;4.57;;;;;;;29.81;37.00;99229.41;12202655;19;20014;-83
2022/06/29 18:10:01;;;;;;;8.35;4.65;;;;;;;29.73;37.38;99230.53;12210181;19;20033;-82
2022/06/29 18:14:04;;;;;;;4.70;4.13;;;;;;;29.48;38.12;99225.44;12186997;19;20475;-82
2022/06/29 18:18:05;;;;;;;5.18;4.22;;;;;;;29.30;38.30;99227.31;12209492;19;20487;-83
2022/06/29 18:22:07;;;;;;;7.32;4.80;;;;;;;29.28;38.26;99221.19;12209630;19;20109;-83
2022/06/29 18:26:09;;;;;;;5.50;4.00;;;;;;;29.22;38.24;99222.75;12188302;19;20014;-82
2022/06/29 18:30:11;;;;;;;7.55;4.53;;;;;;;29.19;38.48;99220.69;12217794;19;20479;-82
2022/06/29 18:34:13;;;;;;;5.70;4.25;;;;;;;29.22;38.77;99222.75;12206643;19;20014;-81
2022/06/29 18:38:16;;;;;;;10.32;4.65;;;;;;;29.08;38.57;99221.38;12188065;19;20023;-82
2022/06/29 18:42:17;;;;;;;8.82;5.10;;;;;;;28.97;38.83;99220.44;12210055;19;20006;-86
2022/06/29 18:46:22;;;;;;;7.47;4.25;;;;;;;28.89;39.21;99215.06;12205478;19;20035;-80
2022/06/29 18:50:24;;;;;;;5.63;4.30;;;;;;;28.76;40.53;99217.34;12190934;19;20014;-82
2022/06/29 18:54:26;;;;;;;7.65;4.43;;;;;;;28.53;40.72;99218.28;12217692;19;20007;-83
2022/06/29 18:58:28;;;;;;;7.40;4.22;;;;;;;28.33;41.33;99222.44;12213968;19;20024;-83
2022/06/29 19:02:29;;;;;;;5.05;4.40;;;;;;;28.09;42.59;99218.06;12192693;19;20094;-82
2022/06/29 19:06:31;;;;;;;7.07;4.60;;;;;;;27.82;43.05;99220.88;12212471;19;20003;-82
2022/06/29 19:10:33;;;;;;;6.07;5.03;;;;;;;27.59;43.79;99217.22;12217404;19;20043;-81
2022/06/29 19:14:35;;;;;;;7.45;4.63;;;;;;;27.34;43.92;99214.81;12187733;19;20034;-83
2022/06/29 19:18:36;;;;;;;8.50;4.40;;;;;;;27.14;44.44;99218.84;12209878;19;20054;-80
2022/06/29 19:22:38;;;;;;;4.97;3.83;;;;;;;26.95;44.74;99214.84;12218154;19;20087;-81
2022/06/29 19:26:41;;;;;;;6.32;4.88;;;;;;;26.84;45.42;99222.31;12187113;19;20391;-80
2022/06/29 19:30:44;;;;;;;;;;;;;;;26.71;45.57;99223.63;12209741;19;20088;-80
2022/06/29 19:34:46;;;;;;;6.63;4.05;;;;;;;26.62;45.70;99235.16;12207401;19;20343;-80